Kezdőlap
METAR-TAF:

METAR-TAF

Repülőterek :

Atyrau, Kazahsztán

földrajzi szélesség: 47-07-19N, földrajzi hosszúság: 051-49-17E, magasság: -22 m

Jelenlegi meteorológiai megfigyelések

A jelentés 10 órával és 12 perccel ezelõtt készült, 12:30 UTC
Keleti szél 16 kt
Hőmérséklet 3°C
Páratartalom 32%
Légköri nyomás 1036 hPa
Látótávolság 10 km, vagy több
felhőtlen 1500 m magasságban, és nincs gomolyfelhõ

METAR: UATG 161230Z 08008MPS CAVOK 03/M12 Q1036 R14/CLRD70 NOSIG RMK QFE779/1039

Idő: 04:42 (22:42 UTC)

Előrejelzés

A jelentés 11 órával és 41 perccel ezelõtt készült, 11:01 UTC
Az előrejelzés 16-én 12 óra UTC és 17-én 12 óra UTC között érvényes
Keleti szél 21 kt
Látótávolság 10 km, vagy több
Szórványos felhőzet 3300 lábon
16-én 15 óra UTC és 16-én 17 óra UTC között fokozatosan kialakuló
Kelet-északkeleti szél 12 kt

TAF: UATG 161101Z 1612/1712 09011MPS 9999 SCT033 TX05/1710Z TNM05/1702Z BECMG 1615/1617 07006MPS

Meteorológiai megfigyelések és előrejelzések több, mint 4000 repülőtéren (METAR és TAF jelentéseket).

A térképen piros és sárga pontok jelzik az elérhető meteorológiai állomásokat.

Mozgassa az egeret a pont fölött, hogy megjelenjen az állomás neve.

Azután kattintson az időjárási megfigyelések és előrejelzések megtekintéséhez.

A térkép megváltoztatása: kattintson a fekete keresztel jelölt zöld gombra ráközelítéshez, a vonallal jelölt zöld gombra távolításhoz, vagy a zöld nyilakra a szomszédos térképek eléréséhez.


METAR-TAF: